sensor_id;sensor_type;location;lat;lon;timestamp;P1;durP1;ratioP1;P2;durP2;ratioP2
77748;SDS011;66938;52.084;5.228;2023-07-09T00:00:44;10.4;;;8.4;;
77748;SDS011;66938;52.084;5.228;2023-07-09T00:02:21;9.71;;;8.31;;
77748;SDS011;66938;52.084;5.228;2023-07-09T00:04:00;10.8;;;8.31;;
77748;SDS011;66938;52.084;5.228;2023-07-09T00:05:36;10.6;;;7.9;;
77748;SDS011;66938;52.084;5.228;2023-07-09T00:08:55;9.9;;;8.2;;
77748;SDS011;66938;52.084;5.228;2023-07-09T00:10:31;9.5;;;8.1;;
77748;SDS011;66938;52.084;5.228;2023-07-09T00:12:08;10.7;;;8.1;;
77748;SDS011;66938;52.084;5.228;2023-07-09T00:15:26;10.4;;;8.31;;
77748;SDS011;66938;52.084;5.228;2023-07-09T00:17:04;8.81;;;7.9;;
77748;SDS011;66938;52.084;5.228;2023-07-09T00:18:45;10.21;;;7.8;;
77748;SDS011;66938;52.084;5.228;2023-07-09T00:20:22;9.0;;;8.1;;
77748;SDS011;66938;52.084;5.228;2023-07-09T00:23:34;8.71;;;7.8;;
77748;SDS011;66938;52.084;5.228;2023-07-09T00:25:11;9.81;;;8.2;;
77748;SDS011;66938;52.084;5.228;2023-07-09T00:26:49;10.5;;;8.0;;
77748;SDS011;66938;52.084;5.228;2023-07-09T00:30:02;9.6;;;8.2;;
77748;SDS011;66938;52.084;5.228;2023-07-09T00:31:39;9.71;;;8.0;;
77748;SDS011;66938;52.084;5.228;2023-07-09T00:33:16;9.71;;;7.8;;
77748;SDS011;66938;52.084;5.228;2023-07-09T00:34:53;10.21;;;8.1;;
77748;SDS011;66938;52.084;5.228;2023-07-09T00:38:12;9.71;;;8.1;;
77748;SDS011;66938;52.084;5.228;2023-07-09T00:39:49;8.5;;;7.6;;
77748;SDS011;66938;52.084;5.228;2023-07-09T00:41:26;10.7;;;7.9;;
77748;SDS011;66938;52.084;5.228;2023-07-09T00:44:51;11.5;;;8.1;;
77748;SDS011;66938;52.084;5.228;2023-07-09T00:47:38;8.71;;;7.8;;
77748;SDS011;66938;52.084;5.228;2023-07-09T00:49:26;8.81;;;7.9;;
77748;SDS011;66938;52.084;5.228;2023-07-09T00:51:07;9.0;;;7.8;;
77748;SDS011;66938;52.084;5.228;2023-07-09T00:52:49;9.81;;;7.7;;
77748;SDS011;66938;52.084;5.228;2023-07-09T00:54:28;9.0;;;7.9;;
77748;SDS011;66938;52.084;5.228;2023-07-09T00:56:09;9.81;;;7.9;;
77748;SDS011;66938;52.084;5.228;2023-07-09T00:59:30;9.9;;;8.2;;
77748;SDS011;66938;52.084;5.228;2023-07-09T01:01:09;10.9;;;8.1;;
77748;SDS011;66938;52.084;5.228;2023-07-09T01:02:49;11.4;;;8.5;;
77748;SDS011;66938;52.084;5.228;2023-07-09T01:04:25;10.1;;;7.9;;
77748;SDS011;66938;52.084;5.228;2023-07-09T01:07:40;9.71;;;8.0;;
77748;SDS011;66938;52.084;5.228;2023-07-09T01:09:17;9.4;;;8.4;;
77748;SDS011;66938;52.084;5.228;2023-07-09T01:10:54;9.1;;;8.1;;
77748;SDS011;66938;52.084;5.228;2023-07-09T01:12:31;10.8;;;8.0;;
77748;SDS011;66938;52.084;5.228;2023-07-09T01:15:48;10.8;;;8.0;;
77748;SDS011;66938;52.084;5.228;2023-07-09T01:17:25;9.5;;;7.7;;
77748;SDS011;66938;52.084;5.228;2023-07-09T01:19:03;8.5;;;7.4;;
77748;SDS011;66938;52.084;5.228;2023-07-09T01:22:19;10.1;;;8.1;;
77748;SDS011;66938;52.084;5.228;2023-07-09T01:23:56;9.21;;;8.0;;
77748;SDS011;66938;52.084;5.228;2023-07-09T01:25:33;10.1;;;8.0;;
77748;SDS011;66938;52.084;5.228;2023-07-09T01:27:22;10.0;;;8.2;;
77748;SDS011;66938;52.084;5.228;2023-07-09T01:30:38;10.8;;;7.7;;
77748;SDS011;66938;52.084;5.228;2023-07-09T01:32:17;9.0;;;8.0;;
77748;SDS011;66938;52.084;5.228;2023-07-09T01:33:56;9.31;;;8.31;;
77748;SDS011;66938;52.084;5.228;2023-07-09T01:35:34;9.9;;;8.4;;
77748;SDS011;66938;52.084;5.228;2023-07-09T01:38:51;8.9;;;8.0;;
77748;SDS011;66938;52.084;5.228;2023-07-09T01:40:28;10.1;;;8.4;;
77748;SDS011;66938;52.084;5.228;2023-07-09T01:42:06;8.9;;;8.0;;
77748;SDS011;66938;52.084;5.228;2023-07-09T01:45:22;10.0;;;7.9;;
77748;SDS011;66938;52.084;5.228;2023-07-09T01:46:59;10.5;;;8.1;;
77748;SDS011;66938;52.084;5.228;2023-07-09T01:48:35;9.71;;;8.2;;
77748;SDS011;66938;52.084;5.228;2023-07-09T01:50:12;9.4;;;8.2;;
77748;SDS011;66938;52.084;5.228;2023-07-09T01:53:26;10.9;;;8.4;;
77748;SDS011;66938;52.084;5.228;2023-07-09T01:55:03;9.9;;;8.1;;
77748;SDS011;66938;52.084;5.228;2023-07-09T01:56:40;8.9;;;8.0;;
77748;SDS011;66938;52.084;5.228;2023-07-09T01:59:53;8.9;;;8.0;;
77748;SDS011;66938;52.084;5.228;2023-07-09T02:01:31;10.4;;;8.1;;
77748;SDS011;66938;52.084;5.228;2023-07-09T02:03:08;8.71;;;7.7;;
77748;SDS011;66938;52.084;5.228;2023-07-09T02:06:22;9.71;;;8.31;;
77748;SDS011;66938;52.084;5.228;2023-07-09T02:07:59;9.9;;;8.71;;
77748;SDS011;66938;52.084;5.228;2023-07-09T02:09:36;10.1;;;8.9;;
77748;SDS011;66938;52.084;5.228;2023-07-09T02:11:13;10.8;;;9.0;;
77748;SDS011;66938;52.084;5.228;2023-07-09T02:14:27;9.5;;;8.5;;
77748;SDS011;66938;52.084;5.228;2023-07-09T02:16:04;9.9;;;8.9;;
77748;SDS011;66938;52.084;5.228;2023-07-09T02:17:41;9.81;;;8.71;;
77748;SDS011;66938;52.084;5.228;2023-07-09T02:20:54;10.7;;;9.21;;
77748;SDS011;66938;52.084;5.228;2023-07-09T02:22:31;11.1;;;8.9;;
77748;SDS011;66938;52.084;5.228;2023-07-09T02:24:08;10.0;;;9.0;;
77748;SDS011;66938;52.084;5.228;2023-07-09T02:25:44;11.1;;;8.81;;
77748;SDS011;66938;52.084;5.228;2023-07-09T02:28:57;10.7;;;9.1;;
77748;SDS011;66938;52.084;5.228;2023-07-09T02:30:34;12.6;;;9.31;;
77748;SDS011;66938;52.084;5.228;2023-07-09T02:32:10;10.1;;;9.1;;
77748;SDS011;66938;52.084;5.228;2023-07-09T02:35:30;10.5;;;9.21;;
77748;SDS011;66938;52.084;5.228;2023-07-09T02:37:07;11.1;;;10.0;;
77748;SDS011;66938;52.084;5.228;2023-07-09T02:38:44;10.3;;;9.21;;
77748;SDS011;66938;52.084;5.228;2023-07-09T02:41:56;10.8;;;9.71;;
77748;SDS011;66938;52.084;5.228;2023-07-09T02:43:33;12.4;;;9.6;;
77748;SDS011;66938;52.084;5.228;2023-07-09T02:45:09;12.8;;;10.5;;
77748;SDS011;66938;52.084;5.228;2023-07-09T02:46:46;11.1;;;10.0;;
77748;SDS011;66938;52.084;5.228;2023-07-09T02:49:59;12.7;;;10.0;;
77748;SDS011;66938;52.084;5.228;2023-07-09T02:51:36;10.8;;;9.71;;
77748;SDS011;66938;52.084;5.228;2023-07-09T02:53:13;11.5;;;10.3;;
77748;SDS011;66938;52.084;5.228;2023-07-09T02:56:25;10.7;;;9.6;;
77748;SDS011;66938;52.084;5.228;2023-07-09T02:58:02;10.7;;;9.6;;
77748;SDS011;66938;52.084;5.228;2023-07-09T02:59:38;10.21;;;9.21;;
77748;SDS011;66938;52.084;5.228;2023-07-09T03:02:53;10.5;;;9.31;;
77748;SDS011;66938;52.084;5.228;2023-07-09T03:04:29;12.6;;;9.81;;
77748;SDS011;66938;52.084;5.228;2023-07-09T03:06:06;11.6;;;9.81;;
77748;SDS011;66938;52.084;5.228;2023-07-09T03:07:43;10.5;;;9.21;;
77748;SDS011;66938;52.084;5.228;2023-07-09T03:10:56;11.0;;;9.81;;
77748;SDS011;66938;52.084;5.228;2023-07-09T03:12:33;11.7;;;9.81;;
77748;SDS011;66938;52.084;5.228;2023-07-09T03:14:10;11.0;;;9.6;;
77748;SDS011;66938;52.084;5.228;2023-07-09T03:17:31;11.0;;;9.6;;
77748;SDS011;66938;52.084;5.228;2023-07-09T03:19:07;10.8;;;9.71;;
77748;SDS011;66938;52.084;5.228;2023-07-09T03:20:44;12.5;;;10.1;;
77748;SDS011;66938;52.084;5.228;2023-07-09T03:22:20;13.1;;;10.5;;
77748;SDS011;66938;52.084;5.228;2023-07-09T03:25:39;10.5;;;9.4;;
77748;SDS011;66938;52.084;5.228;2023-07-09T03:27:17;11.2;;;9.9;;
77748;SDS011;66938;52.084;5.228;2023-07-09T03:28:53;11.1;;;9.6;;
77748;SDS011;66938;52.084;5.228;2023-07-09T03:32:06;11.4;;;9.81;;
77748;SDS011;66938;52.084;5.228;2023-07-09T03:33:43;11.1;;;9.81;;
77748;SDS011;66938;52.084;5.228;2023-07-09T03:35:21;12.5;;;10.0;;
77748;SDS011;66938;52.084;5.228;2023-07-09T03:36:58;11.0;;;9.71;;
77748;SDS011;66938;52.084;5.228;2023-07-09T03:40:10;11.0;;;9.81;;
77748;SDS011;66938;52.084;5.228;2023-07-09T03:41:47;10.21;;;9.21;;
77748;SDS011;66938;52.084;5.228;2023-07-09T03:43:23;10.9;;;9.71;;
77748;SDS011;66938;52.084;5.228;2023-07-09T03:46:36;10.4;;;9.31;;
77748;SDS011;66938;52.084;5.228;2023-07-09T03:48:12;11.4;;;9.9;;
77748;SDS011;66938;52.084;5.228;2023-07-09T03:49:50;11.2;;;10.0;;
77748;SDS011;66938;52.084;5.228;2023-07-09T03:53:03;12.4;;;9.9;;
77748;SDS011;66938;52.084;5.228;2023-07-09T03:54:41;12.6;;;10.4;;
77748;SDS011;66938;52.084;5.228;2023-07-09T03:56:17;10.21;;;9.21;;
77748;SDS011;66938;52.084;5.228;2023-07-09T03:57:53;11.7;;;10.5;;
77748;SDS011;66938;52.084;5.228;2023-07-09T04:01:07;12.0;;;10.3;;
77748;SDS011;66938;52.084;5.228;2023-07-09T04:02:43;11.6;;;9.9;;
77748;SDS011;66938;52.084;5.228;2023-07-09T04:04:20;12.8;;;10.21;;
77748;SDS011;66938;52.084;5.228;2023-07-09T04:07:33;11.6;;;10.4;;
77748;SDS011;66938;52.084;5.228;2023-07-09T04:09:09;11.6;;;10.4;;
77748;SDS011;66938;52.084;5.228;2023-07-09T04:10:45;12.7;;;10.4;;
77748;SDS011;66938;52.084;5.228;2023-07-09T04:13:58;11.6;;;10.21;;
77748;SDS011;66938;52.084;5.228;2023-07-09T04:15:34;12.2;;;10.6;;
77748;SDS011;66938;52.084;5.228;2023-07-09T04:17:11;10.6;;;9.6;;
77748;SDS011;66938;52.084;5.228;2023-07-09T04:18:48;12.5;;;10.5;;
77748;SDS011;66938;52.084;5.228;2023-07-09T04:22:01;13.7;;;10.9;;
77748;SDS011;66938;52.084;5.228;2023-07-09T04:23:37;13.5;;;10.7;;
77748;SDS011;66938;52.084;5.228;2023-07-09T04:25:13;13.6;;;11.0;;
77748;SDS011;66938;52.084;5.228;2023-07-09T04:28:25;12.9;;;11.5;;
77748;SDS011;66938;52.084;5.228;2023-07-09T04:30:03;12.9;;;11.5;;
77748;SDS011;66938;52.084;5.228;2023-07-09T04:31:40;13.0;;;11.6;;
77748;SDS011;66938;52.084;5.228;2023-07-09T04:34:55;13.2;;;11.8;;
77748;SDS011;66938;52.084;5.228;2023-07-09T04:36:31;12.6;;;10.9;;
77748;SDS011;66938;52.084;5.228;2023-07-09T04:38:08;13.1;;;11.7;;
77748;SDS011;66938;52.084;5.228;2023-07-09T04:39:44;12.9;;;11.5;;
77748;SDS011;66938;52.084;5.228;2023-07-09T04:42:57;12.9;;;11.6;;
77748;SDS011;66938;52.084;5.228;2023-07-09T04:44:34;13.8;;;11.8;;
77748;SDS011;66938;52.084;5.228;2023-07-09T04:46:10;13.2;;;11.8;;
77748;SDS011;66938;52.084;5.228;2023-07-09T04:49:22;13.7;;;12.1;;
77748;SDS011;66938;52.084;5.228;2023-07-09T04:50:58;13.3;;;11.9;;
77748;SDS011;66938;52.084;5.228;2023-07-09T04:52:35;12.5;;;11.2;;
77748;SDS011;66938;52.084;5.228;2023-07-09T04:55:48;14.0;;;12.0;;
77748;SDS011;66938;52.084;5.228;2023-07-09T04:57:24;12.6;;;10.9;;
77748;SDS011;66938;52.084;5.228;2023-07-09T04:59:01;11.9;;;10.7;;
77748;SDS011;66938;52.084;5.228;2023-07-09T05:00:37;12.8;;;11.3;;
77748;SDS011;66938;52.084;5.228;2023-07-09T05:03:49;11.5;;;10.3;;
77748;SDS011;66938;52.084;5.228;2023-07-09T05:05:27;13.5;;;11.4;;
77748;SDS011;66938;52.084;5.228;2023-07-09T05:07:03;12.4;;;10.7;;
77748;SDS011;66938;52.084;5.228;2023-07-09T05:10:16;11.8;;;10.6;;
77748;SDS011;66938;52.084;5.228;2023-07-09T05:11:52;13.9;;;10.8;;
77748;SDS011;66938;52.084;5.228;2023-07-09T05:13:28;12.0;;;10.7;;
77748;SDS011;66938;52.084;5.228;2023-07-09T05:16:41;12.6;;;10.7;;
77748;SDS011;66938;52.084;5.228;2023-07-09T05:18:19;12.2;;;10.9;;
77748;SDS011;66938;52.084;5.228;2023-07-09T05:19:56;12.4;;;11.1;;
77748;SDS011;66938;52.084;5.228;2023-07-09T05:21:33;12.4;;;11.1;;
77748;SDS011;66938;52.084;5.228;2023-07-09T05:24:47;12.3;;;11.0;;
77748;SDS011;66938;52.084;5.228;2023-07-09T05:26:24;12.1;;;10.9;;
77748;SDS011;66938;52.084;5.228;2023-07-09T05:28:01;12.1;;;10.9;;
77748;SDS011;66938;52.084;5.228;2023-07-09T05:31:15;13.1;;;11.7;;
77748;SDS011;66938;52.084;5.228;2023-07-09T05:32:51;13.8;;;12.4;;
77748;SDS011;66938;52.084;5.228;2023-07-09T05:34:28;14.1;;;12.3;;
77748;SDS011;66938;52.084;5.228;2023-07-09T05:36:05;12.4;;;10.6;;
77748;SDS011;66938;52.084;5.228;2023-07-09T05:39:19;12.7;;;11.1;;
77748;SDS011;66938;52.084;5.228;2023-07-09T05:40:59;12.8;;;10.9;;
77748;SDS011;66938;52.084;5.228;2023-07-09T05:42:36;12.0;;;10.8;;
77748;SDS011;66938;52.084;5.228;2023-07-09T05:45:49;11.7;;;10.6;;
77748;SDS011;66938;52.084;5.228;2023-07-09T05:47:26;12.1;;;10.9;;
77748;SDS011;66938;52.084;5.228;2023-07-09T05:49:03;12.9;;;11.5;;
77748;SDS011;66938;52.084;5.228;2023-07-09T05:52:18;14.2;;;12.8;;
77748;SDS011;66938;52.084;5.228;2023-07-09T05:53:56;14.3;;;12.8;;
77748;SDS011;66938;52.084;5.228;2023-07-09T05:55:33;15.6;;;12.9;;
77748;SDS011;66938;52.084;5.228;2023-07-09T05:57:10;15.2;;;13.1;;
77748;SDS011;66938;52.084;5.228;2023-07-09T06:00:24;13.6;;;12.2;;
77748;SDS011;66938;52.084;5.228;2023-07-09T06:02:01;14.1;;;12.6;;
77748;SDS011;66938;52.084;5.228;2023-07-09T06:03:37;15.1;;;12.7;;
77748;SDS011;66938;52.084;5.228;2023-07-09T06:06:50;15.1;;;13.5;;
77748;SDS011;66938;52.084;5.228;2023-07-09T06:08:26;15.1;;;13.5;;
77748;SDS011;66938;52.084;5.228;2023-07-09T06:10:04;19.2;;;17.3;;
77748;SDS011;66938;52.084;5.228;2023-07-09T06:11:42;19.3;;;17.41;;
77748;SDS011;66938;52.084;5.228;2023-07-09T06:14:55;16.9;;;15.3;;
77748;SDS011;66938;52.084;5.228;2023-07-09T06:16:32;18.5;;;16.7;;
77748;SDS011;66938;52.084;5.228;2023-07-09T06:18:08;21.1;;;17.8;;
77748;SDS011;66938;52.084;5.228;2023-07-09T06:21:22;18.61;;;16.4;;
77748;SDS011;66938;52.084;5.228;2023-07-09T06:23:00;14.8;;;12.8;;
77748;SDS011;66938;52.084;5.228;2023-07-09T06:24:36;16.0;;;14.1;;
77748;SDS011;66938;52.084;5.228;2023-07-09T06:27:48;17.11;;;15.3;;
77748;SDS011;66938;52.084;5.228;2023-07-09T06:29:25;16.0;;;14.4;;
77748;SDS011;66938;52.084;5.228;2023-07-09T06:31:03;14.1;;;12.6;;
77748;SDS011;66938;52.084;5.228;2023-07-09T06:32:40;16.3;;;13.6;;
77748;SDS011;66938;52.084;5.228;2023-07-09T06:35:53;14.9;;;13.3;;
77748;SDS011;66938;52.084;5.228;2023-07-09T06:37:32;16.0;;;14.1;;
77748;SDS011;66938;52.084;5.228;2023-07-09T06:39:08;18.2;;;15.9;;
77748;SDS011;66938;52.084;5.228;2023-07-09T06:42:23;14.8;;;13.2;;
77748;SDS011;66938;52.084;5.228;2023-07-09T06:43:59;13.8;;;12.4;;
77748;SDS011;66938;52.084;5.228;2023-07-09T06:45:36;14.9;;;13.4;;
77748;SDS011;66938;52.084;5.228;2023-07-09T06:47:13;15.3;;;13.6;;
77748;SDS011;66938;52.084;5.228;2023-07-09T06:50:27;16.5;;;14.2;;
77748;SDS011;66938;52.084;5.228;2023-07-09T06:52:05;15.1;;;13.5;;
77748;SDS011;66938;52.084;5.228;2023-07-09T06:53:42;17.61;;;15.6;;
77748;SDS011;66938;52.084;5.228;2023-07-09T06:56:55;16.0;;;14.3;;
77748;SDS011;66938;52.084;5.228;2023-07-09T06:58:31;17.11;;;15.3;;
77748;SDS011;66938;52.084;5.228;2023-07-09T07:00:10;15.5;;;13.9;;
77748;SDS011;66938;52.084;5.228;2023-07-09T07:03:26;15.6;;;14.0;;
77748;SDS011;66938;52.084;5.228;2023-07-09T07:05:02;14.5;;;13.0;;
77748;SDS011;66938;52.084;5.228;2023-07-09T07:06:39;14.4;;;12.9;;
77748;SDS011;66938;52.084;5.228;2023-07-09T07:08:16;15.9;;;13.4;;
77748;SDS011;66938;52.084;5.228;2023-07-09T07:11:32;15.0;;;13.4;;
77748;SDS011;66938;52.084;5.228;2023-07-09T07:13:09;12.7;;;11.3;;
77748;SDS011;66938;52.084;5.228;2023-07-09T07:14:46;15.5;;;13.7;;
77748;SDS011;66938;52.084;5.228;2023-07-09T07:17:58;16.2;;;13.6;;
77748;SDS011;66938;52.084;5.228;2023-07-09T07:19:34;15.7;;;14.1;;
77748;SDS011;66938;52.084;5.228;2023-07-09T07:21:11;13.9;;;12.4;;
77748;SDS011;66938;52.084;5.228;2023-07-09T07:22:48;13.9;;;12.4;;
77748;SDS011;66938;52.084;5.228;2023-07-09T07:26:00;14.4;;;12.8;;
77748;SDS011;66938;52.084;5.228;2023-07-09T07:27:38;15.7;;;13.7;;
77748;SDS011;66938;52.084;5.228;2023-07-09T07:29:14;15.8;;;13.3;;
77748;SDS011;66938;52.084;5.228;2023-07-09T07:32:37;14.1;;;12.6;;
77748;SDS011;66938;52.084;5.228;2023-07-09T07:34:14;15.4;;;13.9;;
77748;SDS011;66938;52.084;5.228;2023-07-09T07:35:50;15.4;;;13.8;;
77748;SDS011;66938;52.084;5.228;2023-07-09T07:37:27;14.8;;;13.1;;
77748;SDS011;66938;52.084;5.228;2023-07-09T07:40:43;17.11;;;14.4;;
77748;SDS011;66938;52.084;5.228;2023-07-09T07:42:21;15.6;;;13.9;;
77748;SDS011;66938;52.084;5.228;2023-07-09T07:43:58;14.4;;;12.9;;
77748;SDS011;66938;52.084;5.228;2023-07-09T07:47:10;13.7;;;12.0;;
77748;SDS011;66938;52.084;5.228;2023-07-09T07:48:47;17.0;;;13.6;;
77748;SDS011;66938;52.084;5.228;2023-07-09T07:50:24;14.4;;;13.0;;
77748;SDS011;66938;52.084;5.228;2023-07-09T07:53:39;15.4;;;12.8;;
77748;SDS011;66938;52.084;5.228;2023-07-09T07:55:15;12.6;;;11.3;;
77748;SDS011;66938;52.084;5.228;2023-07-09T07:56:52;11.7;;;10.4;;
77748;SDS011;66938;52.084;5.228;2023-07-09T07:58:28;15.4;;;11.6;;
77748;SDS011;66938;52.084;5.228;2023-07-09T08:01:45;12.3;;;10.5;;
77748;SDS011;66938;52.084;5.228;2023-07-09T08:03:21;12.6;;;10.8;;
77748;SDS011;66938;52.084;5.228;2023-07-09T08:04:57;15.4;;;11.7;;
77748;SDS011;66938;52.084;5.228;2023-07-09T08:08:09;12.1;;;10.8;;
77748;SDS011;66938;52.084;5.228;2023-07-09T08:09:46;11.6;;;10.4;;
77748;SDS011;66938;52.084;5.228;2023-07-09T08:11:23;12.5;;;11.1;;
77748;SDS011;66938;52.084;5.228;2023-07-09T08:13:00;12.0;;;10.7;;
77748;SDS011;66938;52.084;5.228;2023-07-09T08:16:15;13.2;;;10.7;;
77748;SDS011;66938;52.084;5.228;2023-07-09T08:17:53;12.4;;;9.71;;
77748;SDS011;66938;52.084;5.228;2023-07-09T08:19:30;10.5;;;9.1;;
77748;SDS011;66938;52.084;5.228;2023-07-09T08:22:45;11.2;;;9.6;;
77748;SDS011;66938;52.084;5.228;2023-07-09T08:24:22;11.2;;;9.5;;
77748;SDS011;66938;52.084;5.228;2023-07-09T08:25:59;10.5;;;9.1;;
77748;SDS011;66938;52.084;5.228;2023-07-09T08:27:37;9.9;;;8.9;;
77748;SDS011;66938;52.084;5.228;2023-07-09T08:30:51;10.8;;;8.1;;
77748;SDS011;66938;52.084;5.228;2023-07-09T08:32:28;12.2;;;10.21;;
77748;SDS011;66938;52.084;5.228;2023-07-09T08:34:05;10.21;;;9.1;;
77748;SDS011;66938;52.084;5.228;2023-07-09T08:37:20;11.5;;;9.6;;
77748;SDS011;66938;52.084;5.228;2023-07-09T08:38:57;12.7;;;9.81;;
77748;SDS011;66938;52.084;5.228;2023-07-09T08:40:33;11.0;;;9.71;;
77748;SDS011;66938;52.084;5.228;2023-07-09T08:44:06;9.9;;;8.81;;
77748;SDS011;66938;52.084;5.228;2023-07-09T08:45:57;12.8;;;9.31;;
77748;SDS011;66938;52.084;5.228;2023-07-09T08:47:43;12.0;;;9.71;;
77748;SDS011;66938;52.084;5.228;2023-07-09T08:49:33;11.1;;;9.31;;
77748;SDS011;66938;52.084;5.228;2023-07-09T08:51:18;11.8;;;9.5;;
77748;SDS011;66938;52.084;5.228;2023-07-09T08:53:07;9.9;;;8.9;;
77748;SDS011;66938;52.084;5.228;2023-07-09T08:54:53;10.6;;;9.31;;
77748;SDS011;66938;52.084;5.228;2023-07-09T08:58:12;11.0;;;9.31;;
77748;SDS011;66938;52.084;5.228;2023-07-09T08:59:55;11.0;;;9.31;;
77748;SDS011;66938;52.084;5.228;2023-07-09T09:01:47;12.4;;;9.21;;
77748;SDS011;66938;52.084;5.228;2023-07-09T09:03:29;9.21;;;8.31;;
77748;SDS011;66938;52.084;5.228;2023-07-09T09:06:57;11.4;;;9.21;;
77748;SDS011;66938;52.084;5.228;2023-07-09T09:08:49;10.0;;;9.0;;
77748;SDS011;66938;52.084;5.228;2023-07-09T09:10:39;11.9;;;9.1;;
77748;SDS011;66938;52.084;5.228;2023-07-09T09:12:23;11.0;;;8.9;;
77748;SDS011;66938;52.084;5.228;2023-07-09T09:14:06;9.71;;;8.71;;
77748;SDS011;66938;52.084;5.228;2023-07-09T09:15:55;11.9;;;9.0;;
77748;SDS011;66938;52.084;5.228;2023-07-09T09:19:25;11.2;;;9.31;;
77748;SDS011;66938;52.084;5.228;2023-07-09T09:21:09;10.6;;;9.5;;
77748;SDS011;66938;52.084;5.228;2023-07-09T09:22:54;11.3;;;9.4;;
77748;SDS011;66938;52.084;5.228;2023-07-09T09:24:50;10.21;;;9.21;;
77748;SDS011;66938;52.084;5.228;2023-07-09T09:26:34;9.81;;;8.81;;
77748;SDS011;66938;52.084;5.228;2023-07-09T09:29:50;10.8;;;9.1;;
77748;SDS011;66938;52.084;5.228;2023-07-09T09:31:26;11.8;;;9.21;;
77748;SDS011;66938;52.084;5.228;2023-07-09T09:33:06;10.5;;;8.71;;
77748;SDS011;66938;52.084;5.228;2023-07-09T09:34:45;10.9;;;8.9;;
77748;SDS011;66938;52.084;5.228;2023-07-09T09:38:02;9.6;;;8.5;;
77748;SDS011;66938;52.084;5.228;2023-07-09T09:39:46;11.0;;;9.0;;
77748;SDS011;66938;52.084;5.228;2023-07-09T09:41:24;10.3;;;8.5;;
77748;SDS011;66938;52.084;5.228;2023-07-09T09:43:11;10.5;;;8.6;;
77748;SDS011;66938;52.084;5.228;2023-07-09T09:46:32;10.8;;;8.4;;
77748;SDS011;66938;52.084;5.228;2023-07-09T09:48:13;9.5;;;8.4;;
77748;SDS011;66938;52.084;5.228;2023-07-09T09:49:52;11.7;;;9.71;;
77748;SDS011;66938;52.084;5.228;2023-07-09T09:51:29;10.5;;;8.31;;
77748;SDS011;66938;52.084;5.228;2023-07-09T09:54:47;11.2;;;8.4;;
77748;SDS011;66938;52.084;5.228;2023-07-09T09:56:29;11.2;;;8.81;;
77748;SDS011;66938;52.084;5.228;2023-07-09T09:58:11;9.5;;;8.4;;
77748;SDS011;66938;52.084;5.228;2023-07-09T09:59:49;10.4;;;8.81;;
77748;SDS011;66938;52.084;5.228;2023-07-09T10:03:09;9.31;;;8.4;;
77748;SDS011;66938;52.084;5.228;2023-07-09T10:04:45;10.4;;;8.71;;
77748;SDS011;66938;52.084;5.228;2023-07-09T10:06:25;9.71;;;8.5;;
77748;SDS011;66938;52.084;5.228;2023-07-09T10:08:15;12.4;;;9.0;;
77748;SDS011;66938;52.084;5.228;2023-07-09T10:11:39;10.6;;;8.4;;
77748;SDS011;66938;52.084;5.228;2023-07-09T10:13:23;10.8;;;9.71;;
77748;SDS011;66938;52.084;5.228;2023-07-09T10:15:11;10.5;;;9.21;;
77748;SDS011;66938;52.084;5.228;2023-07-09T10:16:59;9.9;;;8.9;;
77748;SDS011;66938;52.084;5.228;2023-07-09T10:18:44;11.0;;;9.4;;
77748;SDS011;66938;52.084;5.228;2023-07-09T10:22:14;12.0;;;10.0;;
77748;SDS011;66938;52.084;5.228;2023-07-09T10:24:01;11.2;;;8.71;;
77748;SDS011;66938;52.084;5.228;2023-07-09T10:26:06;10.5;;;8.9;;
77748;SDS011;66938;52.084;5.228;2023-07-09T10:27:54;11.1;;;9.81;;
77748;SDS011;66938;52.084;5.228;2023-07-09T10:29:52;13.0;;;11.0;;
77748;SDS011;66938;52.084;5.228;2023-07-09T10:32:19;12.0;;;10.8;;
77748;SDS011;66938;52.084;5.228;2023-07-09T10:34:15;12.0;;;10.7;;
77748;SDS011;66938;52.084;5.228;2023-07-09T10:36:12;12.2;;;10.9;;
77748;SDS011;66938;52.084;5.228;2023-07-09T10:38:10;11.4;;;10.21;;
77748;SDS011;66938;52.084;5.228;2023-07-09T10:40:14;11.5;;;10.3;;
77748;SDS011;66938;52.084;5.228;2023-07-09T10:42:01;12.1;;;9.9;;
77748;SDS011;66938;52.084;5.228;2023-07-09T10:43:41;11.7;;;10.3;;
77748;SDS011;66938;52.084;5.228;2023-07-09T10:47:09;12.6;;;10.6;;
77748;SDS011;66938;52.084;5.228;2023-07-09T10:49:04;11.7;;;9.9;;
77748;SDS011;66938;52.084;5.228;2023-07-09T10:50:46;13.0;;;11.3;;
77748;SDS011;66938;52.084;5.228;2023-07-09T10:52:27;11.8;;;10.7;;
77748;SDS011;66938;52.084;5.228;2023-07-09T10:54:11;13.8;;;11.1;;
77748;SDS011;66938;52.084;5.228;2023-07-09T10:57:40;12.7;;;11.1;;
77748;SDS011;66938;52.084;5.228;2023-07-09T10:59:24;12.6;;;11.0;;
77748;SDS011;66938;52.084;5.228;2023-07-09T11:01:05;11.9;;;10.5;;
77748;SDS011;66938;52.084;5.228;2023-07-09T11:02:42;11.3;;;10.1;;
77748;SDS011;66938;52.084;5.228;2023-07-09T11:06:14;13.3;;;11.0;;
77748;SDS011;66938;52.084;5.228;2023-07-09T11:07:58;12.8;;;11.5;;
77748;SDS011;66938;52.084;5.228;2023-07-09T11:09:40;11.7;;;10.5;;
77748;SDS011;66938;52.084;5.228;2023-07-09T11:11:25;13.0;;;10.3;;
77748;SDS011;66938;52.084;5.228;2023-07-09T11:13:10;11.5;;;10.4;;
77748;SDS011;66938;52.084;5.228;2023-07-09T11:16:36;12.3;;;10.21;;
77748;SDS011;66938;52.084;5.228;2023-07-09T11:18:20;10.7;;;9.6;;
77748;SDS011;66938;52.084;5.228;2023-07-09T11:20:15;11.8;;;9.5;;
77748;SDS011;66938;52.084;5.228;2023-07-09T11:21:59;11.5;;;10.21;;
77748;SDS011;66938;52.084;5.228;2023-07-09T11:23:43;10.9;;;9.6;;
77748;SDS011;66938;52.084;5.228;2023-07-09T11:27:17;12.4;;;9.71;;
77748;SDS011;66938;52.084;5.228;2023-07-09T11:29:09;11.9;;;10.1;;
77748;SDS011;66938;52.084;5.228;2023-07-09T11:30:51;11.0;;;9.9;;
77748;SDS011;66938;52.084;5.228;2023-07-09T11:32:30;11.3;;;10.1;;
77748;SDS011;66938;52.084;5.228;2023-07-09T11:34:08;11.4;;;10.21;;
77748;SDS011;66938;52.084;5.228;2023-07-09T11:37:25;11.7;;;10.6;;
77748;SDS011;66938;52.084;5.228;2023-07-09T11:39:02;12.2;;;10.8;;
77748;SDS011;66938;52.084;5.228;2023-07-09T11:40:45;11.9;;;10.4;;
77748;SDS011;66938;52.084;5.228;2023-07-09T11:42:23;12.1;;;10.21;;
77748;SDS011;66938;52.084;5.228;2023-07-09T11:45:54;12.1;;;10.9;;
77748;SDS011;66938;52.084;5.228;2023-07-09T11:47:37;12.2;;;10.7;;
77748;SDS011;66938;52.084;5.228;2023-07-09T11:49:17;12.1;;;10.8;;
77748;SDS011;66938;52.084;5.228;2023-07-09T11:50:57;11.8;;;10.5;;
77748;SDS011;66938;52.084;5.228;2023-07-09T11:52:47;11.9;;;10.7;;
77748;SDS011;66938;52.084;5.228;2023-07-09T11:56:11;11.9;;;10.6;;
77748;SDS011;66938;52.084;5.228;2023-07-09T11:57:48;11.4;;;10.3;;
77748;SDS011;66938;52.084;5.228;2023-07-09T11:59:28;11.4;;;10.21;;
77748;SDS011;66938;52.084;5.228;2023-07-09T12:01:09;11.6;;;10.5;;
77748;SDS011;66938;52.084;5.228;2023-07-09T12:04:32;12.6;;;10.3;;
77748;SDS011;66938;52.084;5.228;2023-07-09T12:06:15;11.8;;;10.4;;
77748;SDS011;66938;52.084;5.228;2023-07-09T12:07:56;11.9;;;10.21;;
77748;SDS011;66938;52.084;5.228;2023-07-09T12:09:37;11.5;;;10.3;;
77748;SDS011;66938;52.084;5.228;2023-07-09T12:12:57;11.2;;;9.81;;
77748;SDS011;66938;52.084;5.228;2023-07-09T12:14:34;10.8;;;9.71;;
77748;SDS011;66938;52.084;5.228;2023-07-09T12:16:28;10.21;;;9.31;;
77748;SDS011;66938;52.084;5.228;2023-07-09T12:18:10;10.0;;;8.71;;
77748;SDS011;66938;52.084;5.228;2023-07-09T12:21:27;9.9;;;7.2;;
77748;SDS011;66938;52.084;5.228;2023-07-09T12:23:16;8.5;;;6.6;;
77748;SDS011;66938;52.084;5.228;2023-07-09T12:25:07;7.4;;;6.2;;
77748;SDS011;66938;52.084;5.228;2023-07-09T12:26:56;6.4;;;5.8;;
77748;SDS011;66938;52.084;5.228;2023-07-09T12:28:35;7.3;;;6.1;;
77748;SDS011;66938;52.084;5.228;2023-07-09T12:31:49;6.9;;;5.8;;
77748;SDS011;66938;52.084;5.228;2023-07-09T12:33:26;6.2;;;5.6;;
77748;SDS011;66938;52.084;5.228;2023-07-09T12:35:04;6.6;;;5.9;;
77748;SDS011;66938;52.084;5.228;2023-07-09T12:36:43;7.9;;;6.3;;
77748;SDS011;66938;52.084;5.228;2023-07-09T12:40:09;8.0;;;6.1;;